Pagrindinis puslapis
METAR-TAF:

METAR-TAF

Oro uostai :

Davao, Filipinai

platuma: 07-07N, ilguma: 125-39E, Aukštis: 17 m

Dabartinis oras

Ataskaita buvo paskelbta 20 minutes, ne 21:00 UTC
Ramus vėjas
Temperatūra 26°C
Drėgmė 84%
Slėgis 1011 hPa
Matomumas 10 km arba daugiau
Mažai debesys ne aukštis 1600 ft
Išsisklaidę debesys ne aukštis 29000 ft

METAR: RPMD 202100Z 00000KT 9999 FEW016 SCT290 26/23 Q1011 RMK A2985

Laikas: 05:20 (21:20 UTC)

Prognozė

Ataskaita buvo paskelbta 4 valandos ir 20 minutes, ne 17:00 UTC
Prognozė galioja nuo 20 metu 18 UTC su 21 metu 18 UTC
Vėjas 8 kt iš Pietų
Matomumas 10 km arba daugiau
Mažai debesys ne aukštis 1600 ft
Su prošvaistėmis ne aukštis 29000 ft
Laikinai
nuo 20 metu 18 UTC su 20 metu 24 UTC
Vėjas 3 kt iš Pietų

TAF: RPMD 201700Z 2018/2118 18008KT 9999 FEW016 BKN290 TEMPO 2018/2024 18003KT

Orai ataskaitas ir orų prognozės (METAR, TAF).

turimą stotys yra geltonos ir raudonos taškus žemėlapyje.

Perkelti pele per norėdami pamatyti stoties vardą.

Tada spustelėkite, norėdami matyti oro stebėjimo ir prognozės.

Norėdami pakeisti žemėlapį: spustelėkite ant žalios mygtukų su juodo kryžiaus žemyn,; žalią mygtuką su brūkšneliu, jei norite nutolinti; arba žalių rodyklių gretimoms žemėlapius.


METAR-TAF: